Aviation Digital Data Service (ADDS)

Output produced by METARs form (2053 UTC 01 December 2021)
found at http://aviationweather.gov/metar/data/
 
KHOU 011720Z 0118/0218 22007KT P6SM FEW030 SCT250 
     FM020100 19004KT P6SM SCT250 
     FM020500 VRB03KT 4SM BR FEW003 SCT250 
     FM020700 00000KT 2SM BR SCT002 SCT250 
     FM021500 20005KT P6SM FEW015 SCT250